createdAt,value
2017-09-13T04:28:31.537Z,2
2017-09-13T04:29:02.451Z,0
2017-09-13T04:29:32.581Z,2
2017-09-13T04:36:08.758Z,5
2017-09-13T04:40:12.439Z,8
2017-09-13T04:42:44.231Z,10
2017-09-13T04:43:45.134Z,13
2017-09-13T04:45:16.919Z,15
2017-09-13T04:46:18.086Z,17
2017-09-13T04:46:47.860Z,20
2017-09-13T04:47:48.800Z,22
2017-09-13T04:48:19.701Z,25
2017-09-13T04:48:49.669Z,28
2017-09-13T04:49:20.785Z,32
2017-09-13T04:49:50.581Z,37
2017-09-13T04:50:21.522Z,43
2017-09-13T04:50:51.549Z,47
2017-09-13T04:51:22.556Z,52
2017-09-13T04:51:52.552Z,60
2017-09-13T04:52:23.355Z,62
2017-09-13T04:52:53.402Z,67
2017-09-13T04:53:24.333Z,73
2017-09-13T04:53:54.412Z,75
2017-09-13T04:54:25.224Z,77
2017-09-13T04:54:55.322Z,80
2017-09-13T04:55:26.167Z,83
2017-09-13T04:55:56.268Z,85
2017-09-13T04:56:27.189Z,88
2017-09-13T04:57:28.040Z,85
2017-09-13T04:57:58.034Z,83
2017-09-13T04:58:28.924Z,80
2017-09-13T04:59:29.786Z,77
2017-09-13T05:01:00.720Z,80
2017-09-13T05:01:31.644Z,88
2017-09-13T05:02:01.703Z,90
2017-09-13T05:02:32.549Z,92
2017-09-13T05:03:02.618Z,95
2017-09-13T05:03:33.515Z,105
2017-09-13T05:04:03.474Z,112
2017-09-13T05:04:34.359Z,122
2017-09-13T05:05:04.462Z,128
2017-09-13T05:05:35.284Z,125
2017-09-13T05:06:05.246Z,128
2017-09-13T05:06:36.192Z,135
2017-09-13T05:07:06.149Z,150
2017-09-13T05:07:37.108Z,160
2017-09-13T05:08:07.140Z,172
2017-09-13T05:08:37.942Z,182
2017-09-13T05:09:07.956Z,195
2017-09-13T05:09:38.914Z,205
2017-09-13T05:10:08.870Z,197
2017-09-13T05:10:40.404Z,182
2017-09-13T05:11:09.841Z,187
2017-09-13T05:11:40.684Z,220
2017-09-13T05:12:10.712Z,230
2017-09-13T05:12:41.578Z,242
2017-09-13T05:13:11.635Z,245
2017-09-13T05:13:42.497Z,253
2017-09-13T05:14:12.539Z,275
2017-09-13T05:14:43.366Z,290
2017-09-13T05:15:13.419Z,293
2017-09-13T05:15:44.347Z,280
2017-09-13T05:16:14.394Z,260
2017-09-13T05:16:45.225Z,240
2017-09-13T05:17:15.212Z,223
2017-09-13T05:17:46.109Z,218
2017-09-13T05:20:19.571Z,302
2017-09-13T05:20:48.962Z,332
2017-09-13T05:21:22.434Z,360
2017-09-13T05:21:51.395Z,377
2017-09-13T05:22:22.343Z,392
2017-09-13T05:22:52.294Z,412
2017-09-13T05:23:23.147Z,430
2017-09-13T05:24:24.052Z,412
2017-09-13T05:24:54.037Z,377
2017-09-13T05:25:24.990Z,352
2017-09-13T05:25:55.024Z,343
2017-09-13T05:26:25.836Z,332
2017-09-13T05:26:55.885Z,317
2017-09-13T05:27:26.756Z,302
2017-09-13T05:27:56.786Z,285
2017-09-13T05:28:27.691Z,283
2017-09-13T05:28:57.697Z,287
2017-09-13T05:29:28.578Z,290
2017-09-13T05:29:58.650Z,285
2017-09-13T05:30:29.546Z,260
2017-09-13T05:30:59.572Z,247
2017-09-13T05:31:30.417Z,250
2017-09-13T05:32:00.728Z,255
2017-09-13T05:32:31.366Z,270
2017-09-13T05:33:01.363Z,283
2017-09-13T05:33:32.301Z,302
2017-09-13T05:34:02.298Z,320
2017-09-13T05:34:33.149Z,340
2017-09-13T05:35:03.219Z,355
2017-09-13T05:35:34.103Z,375
2017-09-13T05:36:04.172Z,403
2017-09-13T05:36:34.963Z,442
2017-09-13T05:37:05.092Z,473
2017-09-13T05:37:35.947Z,490
2017-09-13T05:38:06.216Z,508
2017-09-13T05:38:36.878Z,545
2017-09-13T05:39:06.923Z,600
2017-09-13T05:39:37.768Z,655
2017-09-13T05:40:07.789Z,745
2017-09-13T05:40:38.670Z,850
2017-09-13T05:41:08.733Z,923
2017-09-13T05:41:39.597Z,928
2017-09-13T05:42:09.637Z,973
2017-09-13T05:42:40.459Z,1010
2017-09-13T05:43:10.549Z,983
2017-09-13T05:43:41.483Z,923
2017-09-13T05:44:11.458Z,830
2017-09-13T05:44:42.374Z,735
2017-09-13T05:45:12.401Z,675
2017-09-13T05:45:43.383Z,658
2017-09-13T05:46:13.388Z,710
2017-09-13T05:46:44.270Z,758
2017-09-13T05:47:45.207Z,735
2017-09-13T05:48:15.265Z,715
2017-09-13T05:48:46.196Z,705
2017-09-13T05:49:16.175Z,695
2017-09-13T05:49:46.998Z,658
2017-09-13T05:50:17.035Z,605
2017-09-13T05:50:47.965Z,565
2017-09-13T05:51:17.939Z,538
2017-09-13T05:52:49.767Z,530
2017-09-13T05:53:19.818Z,523
2017-09-13T05:53:50.709Z,517
2017-09-13T05:54:20.743Z,553
2017-09-13T05:54:51.581Z,592
2017-09-13T05:55:21.564Z,610
2017-09-13T05:55:52.745Z,617
2017-09-13T05:56:22.536Z,635
2017-09-13T05:56:53.428Z,670
2017-09-13T05:57:23.437Z,718
2017-09-13T05:57:54.261Z,725
2017-09-13T05:58:24.369Z,707
2017-09-13T05:58:55.207Z,683
2017-09-13T05:59:56.087Z,720
2017-09-13T06:00:26.113Z,760
2017-09-13T06:00:57.051Z,800
2017-09-13T06:01:27.045Z,790
2017-09-13T06:01:57.933Z,763
2017-09-13T06:02:27.993Z,742
2017-09-13T06:02:58.808Z,737
2017-09-13T06:03:28.869Z,752
2017-09-13T06:03:59.714Z,790
2017-09-13T06:04:29.839Z,875
2017-09-13T06:05:00.638Z,985
2017-09-13T06:05:30.695Z,1082
2017-09-13T06:06:01.716Z,1193
2017-09-13T06:06:31.554Z,1270
2017-09-13T06:07:02.451Z,1330
2017-09-13T06:07:32.470Z,1390
2017-09-13T06:08:03.371Z,1435
2017-09-13T06:09:04.252Z,1375
2017-09-13T06:09:34.344Z,1280
2017-09-13T06:10:05.157Z,1195
2017-09-13T06:10:35.181Z,1120
2017-09-13T06:11:06.117Z,1030
2017-09-13T06:11:36.089Z,932
2017-09-13T06:12:06.999Z,857
2017-09-13T06:12:37.043Z,820
2017-09-13T06:13:07.872Z,802
2017-09-13T06:13:37.914Z,805
2017-09-13T06:14:38.904Z,785
2017-09-13T06:15:09.733Z,775
2017-09-13T06:16:10.659Z,800
2017-09-13T06:16:40.636Z,827
2017-09-13T06:17:11.539Z,883
2017-09-13T06:17:41.604Z,910
2017-09-13T06:18:12.525Z,932
2017-09-13T06:18:42.503Z,988
2017-09-13T06:19:13.417Z,1070
2017-09-13T06:19:43.453Z,1172
2017-09-13T06:20:14.254Z,1300
2017-09-13T06:20:44.349Z,1423
2017-09-13T06:21:15.298Z,1517
2017-09-13T06:21:45.193Z,1573
2017-09-13T06:22:16.125Z,1580
2017-09-13T06:22:46.167Z,1493
2017-09-13T06:23:16.992Z,1378
2017-09-13T06:23:47.032Z,1262
2017-09-13T06:24:17.906Z,1220
2017-09-13T06:24:47.937Z,1240
2017-09-13T06:25:18.844Z,1312
2017-09-13T06:25:48.900Z,1355
2017-09-13T06:26:19.713Z,1378
2017-09-13T06:26:49.750Z,1405
2017-09-13T06:27:20.625Z,1450
2017-09-13T06:27:50.645Z,1517
2017-09-13T06:28:21.567Z,1605
2017-09-13T06:28:51.610Z,1725
2017-09-13T06:29:22.459Z,1900
2017-09-13T06:29:52.552Z,2055
2017-09-13T06:30:23.396Z,2267
2017-09-13T06:30:53.436Z,2597
2017-09-13T06:31:24.294Z,2938
2017-09-13T06:31:54.370Z,3163
2017-09-13T06:32:25.253Z,3355
2017-09-13T06:32:55.247Z,3598
2017-09-13T06:33:26.166Z,3610
2017-09-13T06:33:56.145Z,3842
2017-09-13T06:34:27.009Z,4095
2017-09-13T06:34:57.097Z,4225
2017-09-13T06:35:27.944Z,4360
2017-09-13T06:35:58.018Z,4350
2017-09-13T06:36:28.846Z,4378
2017-09-13T06:36:58.894Z,4622
2017-09-13T06:37:29.792Z,4925
2017-09-13T06:37:59.794Z,5115
2017-09-13T06:38:30.701Z,5000
2017-09-13T06:39:00.698Z,4735
2017-09-13T06:39:31.632Z,4457
2017-09-13T06:40:01.617Z,4147
2017-09-13T06:40:32.513Z,3825
2017-09-13T06:41:02.534Z,3503
2017-09-13T06:41:33.973Z,3142
2017-09-13T06:42:03.420Z,2835
2017-09-13T06:42:34.296Z,2608
2017-09-13T06:43:04.327Z,2550
2017-09-13T06:43:35.241Z,2545
2017-09-13T06:44:05.311Z,2560
2017-09-13T06:44:36.156Z,2572
2017-09-13T06:45:06.149Z,2560
2017-09-13T06:45:37.059Z,2603
2017-09-13T06:46:07.122Z,2702
2017-09-13T06:46:37.962Z,2737
2017-09-13T06:47:07.971Z,2743
2017-09-13T06:47:38.845Z,2605
2017-09-13T06:48:08.885Z,2438
2017-09-13T06:48:39.820Z,2318
2017-09-13T06:49:09.860Z,2305
2017-09-13T06:49:40.663Z,2383
2017-09-13T06:50:10.753Z,2500
2017-09-13T06:50:41.622Z,2648
2017-09-13T06:51:11.661Z,2790
2017-09-13T06:51:42.601Z,2930
2017-09-13T06:52:12.573Z,3035
2017-09-13T06:52:43.451Z,3137
2017-09-13T06:53:13.483Z,3180
2017-09-13T06:53:44.343Z,3160
2017-09-13T06:54:14.393Z,3103
2017-09-13T06:54:45.223Z,3073
2017-09-13T06:55:15.256Z,3030
2017-09-13T06:55:46.115Z,3120
2017-09-13T06:56:16.197Z,3238
2017-09-13T06:56:48.598Z,3388
2017-09-13T06:57:17.062Z,3602
2017-09-13T06:57:47.946Z,3855
2017-09-13T06:58:18.102Z,4067
2017-09-13T06:58:48.926Z,4118
2017-09-13T06:59:18.971Z,4123
2017-09-13T06:59:49.790Z,4045
2017-09-13T07:00:19.852Z,4010
2017-09-13T07:00:50.690Z,3990
2017-09-13T07:01:20.730Z,3875
2017-09-13T07:01:51.710Z,3805
2017-09-13T07:02:21.679Z,3778
2017-09-13T07:02:52.582Z,3763
2017-09-13T07:03:22.549Z,3795
2017-09-13T07:03:53.462Z,3875
2017-09-13T07:04:23.503Z,4057
2017-09-13T07:04:54.383Z,4325
2017-09-13T07:05:24.422Z,4565
2017-09-13T07:05:55.315Z,4915
2017-09-13T07:06:25.344Z,5383
2017-09-13T07:06:56.216Z,5850
2017-09-13T07:07:26.204Z,6440
2017-09-13T07:07:57.071Z,7035
2017-09-13T07:08:27.187Z,7093
2017-09-13T07:08:58.025Z,7215
2017-09-13T07:09:28.030Z,7735
2017-09-13T07:09:58.901Z,8398
2017-09-13T07:10:28.912Z,9235
2017-09-13T07:10:59.877Z,9388
2017-09-13T07:11:29.839Z,8965
2017-09-13T07:12:00.965Z,8083
2017-09-13T07:12:30.820Z,7360
2017-09-13T07:13:01.622Z,6718
2017-09-13T07:13:31.716Z,6215
2017-09-13T07:14:02.549Z,5507
2017-09-13T07:14:32.605Z,4802
2017-09-13T07:15:03.502Z,4397
2017-09-13T07:15:33.472Z,4185
2017-09-13T07:16:04.369Z,4265
2017-09-13T07:16:34.407Z,4622
2017-09-13T07:17:05.293Z,5025
2017-09-13T07:17:35.313Z,5177
2017-09-13T07:18:06.151Z,5180
2017-09-13T07:18:36.734Z,5120
2017-09-13T07:19:07.132Z,5272
2017-09-13T07:19:37.160Z,5588
2017-09-13T07:20:07.969Z,5880
2017-09-13T07:20:37.998Z,6230
2017-09-13T07:21:08.924Z,6755
2017-09-13T07:21:38.951Z,7680
2017-09-13T07:22:09.863Z,11432
2017-09-13T07:22:39.883Z,14045
2017-09-13T07:23:10.757Z,12195
2017-09-13T07:23:40.781Z,13633
2017-09-13T07:24:11.652Z,13115
2017-09-13T07:24:41.667Z,12322
2017-09-13T07:25:12.574Z,12960
2017-09-13T07:25:42.635Z,11042
2017-09-13T07:26:13.465Z,10255
2017-09-13T07:26:43.506Z,11335
2017-09-13T07:27:14.415Z,17815
2017-09-13T07:27:44.438Z,25487
2017-09-13T07:28:15.316Z,24313
2017-09-13T07:28:45.312Z,16150
2017-09-13T07:29:16.233Z,11945
2017-09-13T07:29:46.265Z,14213
2017-09-13T07:30:17.143Z,26347
2017-09-13T07:30:47.098Z,19145
2017-09-13T07:31:17.976Z,28955
2017-09-13T07:31:48.019Z,17820
2017-09-13T07:32:18.914Z,21445
2017-09-13T07:32:48.959Z,16170
2017-09-13T07:33:19.805Z,16035
2017-09-13T07:33:49.816Z,22228
2017-09-13T07:34:20.748Z,27047
2017-09-13T07:34:50.731Z,23240
2017-09-13T07:35:21.665Z,25543
2017-09-13T07:35:51.683Z,19680
2017-09-13T07:36:22.562Z,27960
2017-09-13T07:36:52.547Z,27270
2017-09-13T07:37:23.439Z,13055
2017-09-13T07:37:53.465Z,12053
2017-09-13T07:38:24.398Z,11572
2017-09-13T07:38:54.438Z,11360
2017-09-13T07:39:25.319Z,11522
2017-09-13T07:39:55.365Z,11475
2017-09-13T07:40:26.200Z,11865
2017-09-13T07:40:56.228Z,12815
2017-09-13T07:41:27.148Z,21115
2017-09-13T07:41:57.097Z,20150
2017-09-13T07:42:28.047Z,12350
2017-09-13T07:42:58.060Z,13120
2017-09-13T07:43:28.948Z,21860
2017-09-13T07:43:58.938Z,17765
2017-09-13T07:44:29.784Z,23880
2017-09-13T07:44:59.807Z,24692
2017-09-13T07:45:30.720Z,24525
2017-09-13T07:46:00.719Z,12902
2017-09-13T07:46:31.600Z,12283
2017-09-13T07:47:01.700Z,11942
2017-09-13T07:47:32.581Z,10562
2017-09-13T07:48:02.619Z,8830
2017-09-13T07:48:33.439Z,7363
2017-09-13T07:49:03.432Z,6422
2017-09-13T07:49:34.379Z,5790
2017-09-13T07:50:04.390Z,5120
2017-09-13T07:50:35.242Z,4730
2017-09-13T07:51:05.240Z,4565
2017-09-13T07:51:36.165Z,4550
2017-09-13T07:52:06.149Z,5132
2017-09-13T07:52:37.042Z,5383
2017-09-13T07:53:07.080Z,5563
2017-09-13T07:53:37.958Z,5692
2017-09-13T07:54:07.954Z,5702
2017-09-13T07:54:38.845Z,5810
2017-09-13T07:55:08.855Z,6695
2017-09-13T07:55:39.737Z,7235
2017-09-13T07:56:09.798Z,6493
2017-09-13T07:56:40.687Z,5555
2017-09-13T07:57:10.681Z,5265
2017-09-13T07:57:41.542Z,6122
2017-09-13T07:58:11.577Z,6700
2017-09-13T07:58:42.521Z,7393
2017-09-13T07:59:12.489Z,6827
2017-09-13T07:59:43.415Z,6355
2017-09-13T08:00:13.411Z,6863
2017-09-13T08:00:44.295Z,8137
2017-09-13T08:01:14.284Z,9655
2017-09-13T08:01:45.178Z,11465
2017-09-13T08:02:15.187Z,14132
2017-09-13T08:02:46.100Z,18838
2017-09-13T08:03:16.171Z,17215
2017-09-13T08:03:47.009Z,14372
2017-09-13T08:04:17.061Z,12367
2017-09-13T08:04:47.897Z,11655
2017-09-13T08:05:17.901Z,19295
2017-09-13T08:05:48.823Z,9883
2017-09-13T08:06:18.855Z,9067
2017-09-13T08:06:49.724Z,8447
2017-09-13T08:07:19.716Z,7093
2017-09-13T08:07:50.603Z,5812
2017-09-13T08:08:20.655Z,5192
2017-09-13T08:08:51.558Z,4958
2017-09-13T08:09:21.533Z,5342
2017-09-13T08:09:52.411Z,5920
2017-09-13T08:10:22.471Z,6540
2017-09-13T08:10:53.364Z,7018
2017-09-13T08:11:23.414Z,8068
2017-09-13T08:11:54.222Z,8420
2017-09-13T08:12:24.252Z,7708
2017-09-13T08:12:55.162Z,7097
2017-09-13T08:13:25.187Z,6647
2017-09-13T08:13:56.016Z,6205
2017-09-13T08:14:26.121Z,5830
2017-09-13T08:14:56.993Z,5828
2017-09-13T08:15:26.951Z,6025
2017-09-13T08:15:57.864Z,6500
2017-09-13T08:16:27.931Z,7390
2017-09-13T08:16:58.732Z,6932
2017-09-13T08:17:28.767Z,6347
2017-09-13T08:17:59.694Z,5575
2017-09-13T08:18:29.676Z,5290
2017-09-13T08:19:00.661Z,5390
2017-09-13T08:19:30.602Z,6173
2017-09-13T08:20:01.508Z,6197
2017-09-13T08:20:31.534Z,5753
2017-09-13T08:21:02.402Z,5578
2017-09-13T08:21:32.461Z,5255
2017-09-13T08:22:03.346Z,5050
2017-09-13T08:22:33.329Z,4978
2017-09-13T08:23:04.233Z,4432
2017-09-13T08:23:34.247Z,4222
2017-09-13T08:24:05.121Z,5117
2017-09-13T08:24:35.119Z,5492
2017-09-13T08:25:05.996Z,6190
2017-09-13T08:25:36.057Z,6902
2017-09-13T08:26:06.949Z,7565
2017-09-13T08:26:36.969Z,8290
2017-09-13T08:27:07.827Z,8560
2017-09-13T08:27:37.841Z,8675
2017-09-13T08:28:08.551Z,9890
2017-09-13T08:28:38.631Z,10763
2017-09-13T08:29:09.431Z,11500
2017-09-13T08:29:39.508Z,11660
2017-09-13T08:30:10.397Z,10805
2017-09-13T08:30:40.395Z,9845
2017-09-13T08:31:11.274Z,10198
2017-09-13T08:31:41.340Z,10860
2017-09-13T08:32:12.177Z,11010
2017-09-13T08:32:42.232Z,14325
2017-09-13T08:33:13.134Z,13862
2017-09-13T08:33:43.125Z,35222
2017-09-13T08:34:14.027Z,34273
2017-09-13T08:34:44.070Z,10697
2017-09-13T08:35:14.852Z,8655
2017-09-13T08:35:44.884Z,8018
2017-09-13T08:36:15.789Z,10438
2017-09-13T08:36:45.820Z,13515
2017-09-13T08:37:16.714Z,24115
2017-09-13T08:37:46.721Z,11280
2017-09-13T08:38:17.575Z,12182
2017-09-13T08:38:47.610Z,12735
2017-09-13T08:39:18.509Z,12433
2017-09-13T08:39:48.560Z,12508
2017-09-13T08:40:19.403Z,14355
2017-09-13T08:40:49.495Z,22535
2017-09-13T08:41:20.335Z,15032
2017-09-13T08:41:50.414Z,15590
2017-09-13T08:42:21.194Z,18143
2017-09-13T08:42:51.231Z,23130
2017-09-13T08:43:22.146Z,38402
2017-09-13T08:43:52.185Z,15688
2017-09-13T08:44:23.044Z,34427
2017-09-13T08:44:53.037Z,26755
2017-09-13T08:45:23.938Z,11017
2017-09-13T08:45:53.957Z,31873
2017-09-13T08:46:24.888Z,23323
2017-09-13T08:46:54.904Z,10760
2017-09-13T08:47:25.717Z,9240
2017-09-13T08:47:55.746Z,10267
2017-09-13T08:48:26.650Z,14683
2017-09-13T08:48:56.671Z,14630
2017-09-13T08:49:27.564Z,12692
2017-09-13T08:49:57.598Z,11503
2017-09-13T08:50:28.478Z,10697
2017-09-13T08:50:58.515Z,13217
2017-09-13T08:51:29.414Z,13550
2017-09-13T08:51:59.447Z,13663
2017-09-13T08:52:30.277Z,14147
2017-09-13T08:53:00.725Z,13742
2017-09-13T08:53:31.252Z,13805
2017-09-13T08:54:01.214Z,13710
2017-09-13T08:54:32.104Z,13190
2017-09-13T08:55:02.095Z,12880
2017-09-13T08:55:33.012Z,12557
2017-09-13T08:56:03.002Z,10440
2017-09-13T08:56:33.916Z,9653
2017-09-13T08:57:04.004Z,10015
2017-09-13T08:57:34.793Z,11477
2017-09-13T08:58:04.818Z,12545
2017-09-13T08:58:35.776Z,13385
2017-09-13T08:59:05.726Z,14125
2017-09-13T08:59:36.625Z,13577
2017-09-13T09:00:06.654Z,12667
2017-09-13T09:00:37.563Z,11780
2017-09-13T09:01:07.534Z,10838
2017-09-13T09:01:38.431Z,10873
2017-09-13T09:02:08.448Z,11860
2017-09-13T09:02:39.364Z,11108
2017-09-13T09:03:09.357Z,9962
2017-09-13T09:03:40.279Z,10292
2017-09-13T09:04:10.236Z,13015
2017-09-13T09:04:41.104Z,34063
2017-09-13T09:05:11.220Z,9865
2017-09-13T09:05:42.008Z,10640
2017-09-13T09:06:12.115Z,36210
2017-09-13T09:06:42.955Z,35835
2017-09-13T09:07:13.035Z,17773
2017-09-13T09:07:43.833Z,13785
2017-09-13T09:08:13.847Z,12278
2017-09-13T09:08:44.726Z,33255
2017-09-13T09:09:14.814Z,32640
2017-09-13T09:09:45.672Z,30795
2017-09-13T09:10:15.731Z,32680
2017-09-13T09:10:46.619Z,31950
2017-09-13T09:11:16.585Z,31838
2017-09-13T09:11:47.497Z,31913
2017-09-13T09:12:17.555Z,32053
2017-09-13T09:12:48.423Z,29852
2017-09-13T09:13:18.437Z,32705
2017-09-13T09:13:49.340Z,33203
2017-09-13T09:14:19.350Z,33740
2017-09-13T09:14:50.209Z,34940
2017-09-13T09:15:20.249Z,35980
2017-09-13T09:15:51.123Z,10603
2017-09-13T09:16:21.111Z,10490
2017-09-13T09:16:52.016Z,9700
2017-09-13T09:17:22.073Z,9163
2017-09-13T09:17:52.880Z,8620
2017-09-13T09:18:22.913Z,36527
2017-09-13T09:18:53.885Z,9817
2017-09-13T09:19:23.831Z,33497
2017-09-13T09:19:54.777Z,33133
2017-09-13T09:20:24.765Z,32833
2017-09-13T09:20:55.649Z,32273
2017-09-13T09:21:25.648Z,32495
2017-09-13T09:21:56.581Z,32660
2017-09-13T09:22:26.641Z,32400
2017-09-13T09:22:57.468Z,32375
2017-09-13T09:23:27.493Z,32638
2017-09-13T09:23:58.393Z,22930
2017-09-13T09:24:28.378Z,32642
2017-09-13T09:24:59.256Z,32413
2017-09-13T09:25:29.307Z,32395
2017-09-13T09:26:00.165Z,32428
2017-09-13T09:26:30.189Z,32488
2017-09-13T09:27:01.065Z,32395
2017-09-13T09:27:31.108Z,32458
2017-09-13T09:28:01.954Z,32452
2017-09-13T09:28:32.026Z,32543
2017-09-13T09:29:02.932Z,32582
2017-09-13T09:29:32.921Z,32735
2017-09-13T09:30:03.882Z,32738
2017-09-13T09:30:33.797Z,32765
2017-09-13T09:31:04.712Z,32905
2017-09-13T09:31:34.764Z,33205
2017-09-13T09:32:05.620Z,32533
2017-09-13T09:32:35.666Z,31757
2017-09-13T09:33:06.517Z,32878
2017-09-13T09:33:36.550Z,32987
2017-09-13T09:34:07.421Z,33310
2017-09-13T09:34:37.486Z,35428
2017-09-13T09:35:08.349Z,33647
2017-09-13T09:35:38.336Z,33307
2017-09-13T09:36:09.193Z,33330
2017-09-13T09:36:39.270Z,33455
2017-09-13T09:37:10.164Z,20213
2017-09-13T09:37:40.143Z,34498
2017-09-13T09:38:11.099Z,33765
2017-09-13T09:38:41.063Z,33480
2017-09-13T09:39:11.936Z,33490
2017-09-13T09:39:41.970Z,33497
2017-09-13T09:40:12.865Z,33525
2017-09-13T09:40:42.914Z,33553
2017-09-13T09:41:13.840Z,33613
2017-09-13T09:41:43.763Z,33617
2017-09-13T09:42:14.701Z,33720
2017-09-13T09:42:44.682Z,33622
2017-09-13T09:43:15.618Z,33788
2017-09-13T09:43:45.631Z,33785
2017-09-13T09:44:16.513Z,33808
2017-09-13T09:44:46.489Z,33898
2017-09-13T09:45:17.381Z,33925
2017-09-13T09:45:47.448Z,33988
2017-09-13T09:46:18.348Z,34020
2017-09-13T09:46:48.300Z,34078
2017-09-13T09:47:19.191Z,34082
2017-09-13T09:47:49.246Z,34028
2017-09-13T09:48:20.147Z,34210
2017-09-13T09:48:50.129Z,34650
2017-09-13T09:49:21.003Z,35027
2017-09-13T09:49:51.031Z,35657
2017-09-13T09:50:21.992Z,37085
2017-09-13T09:50:51.995Z,39350
2017-09-13T09:51:22.836Z,26467
2017-09-13T09:51:52.847Z,19115
2017-09-13T09:52:23.716Z,17552
2017-09-13T09:52:53.795Z,34592
2017-09-13T09:53:24.689Z,20533
2017-09-13T09:53:54.698Z,18577
2017-09-13T09:54:25.601Z,40048
2017-09-13T09:54:55.602Z,39240
2017-09-13T09:55:26.486Z,39727
2017-09-13T09:55:56.487Z,38990
2017-09-13T09:56:27.316Z,37232
2017-09-13T09:56:57.433Z,36125
2017-09-13T09:57:28.296Z,35537
2017-09-13T09:57:58.335Z,35527
2017-09-13T09:58:29.171Z,36197
2017-09-13T09:58:59.169Z,36455
2017-09-13T09:59:30.097Z,35930
2017-09-13T10:00:00.084Z,35705
2017-09-13T10:00:30.986Z,35533
2017-09-13T10:01:01.054Z,35855
2017-09-13T10:01:31.926Z,35820
2017-09-13T10:02:01.885Z,35353
2017-09-13T10:02:32.758Z,35580
2017-09-13T10:03:02.832Z,35567
2017-09-13T10:03:33.672Z,35848
2017-09-13T10:04:03.780Z,35767
2017-09-13T10:04:34.666Z,35482
2017-09-13T10:05:04.657Z,35460
2017-09-13T10:05:35.531Z,35057
2017-09-13T10:06:05.552Z,35377
2017-09-13T10:06:36.442Z,35335
2017-09-13T10:07:06.461Z,35415
2017-09-13T10:07:37.356Z,35555
2017-09-13T10:08:07.397Z,35222
2017-09-13T10:08:38.264Z,35732
2017-09-13T10:09:08.292Z,37168
2017-09-13T10:09:39.191Z,37280
2017-09-13T10:10:09.152Z,38025
2017-09-13T10:10:40.080Z,38417
2017-09-13T10:11:10.116Z,36915
2017-09-13T10:11:40.968Z,36320
2017-09-13T10:12:11.018Z,36820
2017-09-13T10:12:41.965Z,17535
2017-09-13T10:13:11.942Z,40322
2017-09-13T10:13:42.897Z,11917
2017-09-13T10:14:12.940Z,28427
2017-09-13T10:14:43.828Z,45235
2017-09-13T10:15:13.816Z,40697
2017-09-13T10:15:44.741Z,41585
2017-09-13T10:16:14.741Z,21442
2017-09-13T10:16:45.623Z,38138
2017-09-13T10:17:15.685Z,37440
2017-09-13T10:17:46.597Z,38680
2017-09-13T10:18:16.649Z,40865
2017-09-13T10:18:47.474Z,25142
2017-09-13T10:19:17.504Z,16555
2017-09-13T10:19:48.393Z,17347
2017-09-13T10:20:18.414Z,42943
2017-09-13T10:20:49.313Z,25457
2017-09-13T10:21:19.366Z,44600
2017-09-13T10:21:50.256Z,43403
2017-09-13T10:22:20.207Z,15688
2017-09-13T10:22:51.091Z,21617
2017-09-13T10:23:21.130Z,20440
2017-09-13T10:23:52.025Z,20335
2017-09-13T10:24:22.095Z,23600
2017-09-13T10:24:52.906Z,21958
2017-09-13T10:25:22.937Z,45403
2017-09-13T10:25:53.837Z,30435
2017-09-13T10:26:23.879Z,48310
2017-09-13T10:26:54.756Z,46180
2017-09-13T10:27:24.804Z,34333
2017-09-13T10:27:55.646Z,46402
2017-09-13T10:28:25.676Z,48085
2017-09-13T10:28:56.582Z,49285
2017-09-13T10:29:26.622Z,52075
2017-09-13T10:29:57.512Z,23267
2017-09-13T10:30:27.548Z,18790
2017-09-13T10:30:58.421Z,15420
2017-09-13T10:31:28.495Z,14197
2017-09-13T10:31:59.381Z,13665
2017-09-13T10:32:29.345Z,14668
2017-09-13T10:33:00.276Z,14827
2017-09-13T10:33:30.268Z,14445
2017-09-13T10:34:01.209Z,16727
2017-09-13T10:34:31.258Z,19993
2017-09-13T10:35:02.031Z,24022
2017-09-13T10:35:32.087Z,18287
2017-09-13T10:36:03.020Z,18090
2017-09-13T10:36:32.971Z,19495
2017-09-13T10:37:03.928Z,22153
2017-09-13T10:37:33.956Z,28112
2017-09-13T10:38:04.837Z,49157
2017-09-13T10:38:34.810Z,45870
2017-09-13T10:39:05.755Z,33780
2017-09-13T10:39:35.771Z,20740
2017-09-13T10:40:06.596Z,18163
2017-09-13T10:40:36.887Z,16000
2017-09-13T10:41:07.508Z,14942
2017-09-13T10:41:37.531Z,13198
2017-09-13T10:42:08.474Z,13200
2017-09-13T10:42:38.421Z,13095
2017-09-13T10:43:09.370Z,11477
2017-09-13T10:43:39.333Z,10612
2017-09-13T10:44:10.278Z,10640
2017-09-13T10:44:40.304Z,11087
2017-09-13T10:45:11.163Z,12692
2017-09-13T10:45:41.266Z,12928
2017-09-13T10:46:12.069Z,14780
2017-09-13T10:46:42.124Z,48140
2017-09-13T10:47:12.991Z,49920
2017-09-13T10:47:42.994Z,47818
2017-09-13T10:48:13.867Z,16845
2017-09-13T10:48:43.937Z,15840
2017-09-13T10:49:14.746Z,14635
2017-09-13T10:49:44.783Z,12820
2017-09-13T10:50:15.657Z,34588
2017-09-13T10:50:45.763Z,18617
2017-09-13T10:51:16.568Z,33620
2017-09-13T10:51:46.660Z,46453
2017-09-13T10:52:17.534Z,35893
2017-09-13T10:52:47.578Z,47702
2017-09-13T10:53:18.450Z,19918
2017-09-13T10:53:48.453Z,23225
2017-09-13T10:54:19.365Z,26350
2017-09-13T10:54:49.377Z,46438
2017-09-13T10:55:20.272Z,40930
2017-09-13T10:55:50.221Z,42040
2017-09-13T10:56:21.181Z,41123
2017-09-13T10:56:51.229Z,41083
2017-09-13T10:57:22.086Z,43945
2017-09-13T10:57:52.072Z,45095
2017-09-13T10:58:22.952Z,44987
2017-09-13T10:58:52.974Z,29080
2017-09-13T10:59:23.848Z,42570
2017-09-13T10:59:53.888Z,41522
2017-09-13T11:00:24.840Z,41032
2017-09-13T11:00:54.856Z,40262
2017-09-13T11:01:25.704Z,28757
2017-09-13T11:01:55.715Z,22963
2017-09-13T11:02:26.687Z,22742
2017-09-13T11:02:56.642Z,6613
2017-09-13T11:03:27.566Z,6343
2017-09-13T11:03:57.519Z,7850
2017-09-13T11:04:28.452Z,14702
2017-09-13T11:04:58.691Z,41747
2017-09-13T11:05:29.333Z,46232
2017-09-13T11:05:59.392Z,46877
2017-09-13T11:06:30.253Z,47830
2017-09-13T11:07:00.240Z,44050
2017-09-13T11:07:31.147Z,15100
2017-09-13T11:08:01.155Z,14865
2017-09-13T11:08:32.019Z,22225
2017-09-13T11:09:02.068Z,47965
2017-09-13T11:09:32.994Z,47387
2017-09-13T11:10:02.960Z,45043
2017-09-13T11:10:33.897Z,14945
2017-09-13T11:11:03.952Z,46670
2017-09-13T11:11:34.757Z,45875
2017-09-13T11:12:04.783Z,21430
2017-09-13T11:12:35.703Z,11468
2017-09-13T11:13:05.703Z,11233
2017-09-13T11:13:36.597Z,14473
2017-09-13T11:14:06.657Z,36800
2017-09-13T11:14:37.515Z,42035
2017-09-13T11:15:07.518Z,10643
2017-09-13T11:15:38.424Z,10615
2017-09-13T11:16:08.455Z,10260
2017-09-13T11:16:39.306Z,43708
2017-09-13T11:17:09.338Z,44410
2017-09-13T11:17:40.242Z,14060
2017-09-13T11:18:10.289Z,36470
2017-09-13T11:18:41.146Z,12565
2017-09-13T11:19:11.171Z,41790
2017-09-13T11:19:42.032Z,41920
2017-09-13T11:20:12.071Z,25052
2017-09-13T11:20:43.003Z,41525
2017-09-13T11:21:12.996Z,11175
2017-09-13T11:21:43.890Z,9385
2017-09-13T11:22:13.903Z,39958
2017-09-13T11:22:44.801Z,39142
2017-09-13T11:23:14.797Z,39362
2017-09-13T11:23:45.719Z,38698
2017-09-13T11:24:15.783Z,26353
2017-09-13T11:24:46.589Z,41887
2017-09-13T11:25:16.662Z,44110
2017-09-13T11:25:47.526Z,46465
2017-09-13T11:26:17.575Z,41690
2017-09-13T11:26:48.467Z,42157
2017-09-13T11:27:18.508Z,40350
2017-09-13T11:27:49.366Z,41670
2017-09-13T11:28:19.381Z,30203
2017-09-13T11:28:50.275Z,32437
2017-09-13T11:29:20.287Z,10498
2017-09-13T11:29:51.210Z,17813
2017-09-13T11:30:21.217Z,15677
2017-09-13T11:30:52.116Z,32738
2017-09-13T11:31:22.103Z,39277
2017-09-13T11:31:52.977Z,38150
2017-09-13T11:32:23.016Z,39390